sensor_id;sensor_type;location;lat;lon;timestamp;P1;durP1;ratioP1;P2;durP2;ratioP2
4575;SDS011;2300;51.874;8.430;2024-02-04T00:02:03;7.83;;;4.63;;
4575;SDS011;2300;51.874;8.430;2024-02-04T00:04:32;7.93;;;4.80;;
4575;SDS011;2300;51.874;8.430;2024-02-04T00:06:59;8.23;;;4.60;;
4575;SDS011;2300;51.874;8.430;2024-02-04T00:09:26;8.50;;;4.97;;
4575;SDS011;2300;51.874;8.430;2024-02-04T00:11:54;8.63;;;5.40;;
4575;SDS011;2300;51.874;8.430;2024-02-04T00:14:23;14.83;;;5.93;;
4575;SDS011;2300;51.874;8.430;2024-02-04T00:16:51;10.90;;;5.30;;
4575;SDS011;2300;51.874;8.430;2024-02-04T00:19:21;9.53;;;5.47;;
4575;SDS011;2300;51.874;8.430;2024-02-04T00:21:48;10.20;;;5.30;;
4575;SDS011;2300;51.874;8.430;2024-02-04T00:24:15;9.53;;;5.20;;
4575;SDS011;2300;51.874;8.430;2024-02-04T00:26:43;9.27;;;5.30;;
4575;SDS011;2300;51.874;8.430;2024-02-04T00:29:11;9.43;;;5.67;;
4575;SDS011;2300;51.874;8.430;2024-02-04T00:31:38;9.93;;;5.57;;
4575;SDS011;2300;51.874;8.430;2024-02-04T00:34:05;10.47;;;5.23;;
4575;SDS011;2300;51.874;8.430;2024-02-04T00:36:35;8.77;;;5.57;;
4575;SDS011;2300;51.874;8.430;2024-02-04T00:39:02;9.97;;;6.00;;
4575;SDS011;2300;51.874;8.430;2024-02-04T00:41:30;10.13;;;6.17;;
4575;SDS011;2300;51.874;8.430;2024-02-04T00:44:00;9.17;;;6.27;;
4575;SDS011;2300;51.874;8.430;2024-02-04T00:46:29;13.20;;;7.00;;
4575;SDS011;2300;51.874;8.430;2024-02-04T00:48:56;10.90;;;6.50;;
4575;SDS011;2300;51.874;8.430;2024-02-04T00:51:22;13.07;;;6.80;;
4575;SDS011;2300;51.874;8.430;2024-02-04T00:53:51;12.60;;;7.20;;
4575;SDS011;2300;51.874;8.430;2024-02-04T00:56:19;14.10;;;7.13;;
4575;SDS011;2300;51.874;8.430;2024-02-04T00:58:47;12.17;;;7.37;;
4575;SDS011;2300;51.874;8.430;2024-02-04T01:01:14;12.83;;;7.60;;
4575;SDS011;2300;51.874;8.430;2024-02-04T01:03:41;14.53;;;7.63;;
4575;SDS011;2300;51.874;8.430;2024-02-04T01:06:08;12.47;;;8.10;;
4575;SDS011;2300;51.874;8.430;2024-02-04T01:08:35;17.10;;;8.77;;
4575;SDS011;2300;51.874;8.430;2024-02-04T01:11:06;21.57;;;11.57;;
4575;SDS011;2300;51.874;8.430;2024-02-04T01:13:40;24.43;;;13.53;;
4575;SDS011;2300;51.874;8.430;2024-02-04T01:16:07;31.40;;;17.33;;
4575;SDS011;2300;51.874;8.430;2024-02-04T01:18:34;36.17;;;19.23;;
4575;SDS011;2300;51.874;8.430;2024-02-04T01:21:01;39.80;;;21.80;;
4575;SDS011;2300;51.874;8.430;2024-02-04T01:23:29;47.97;;;25.37;;
4575;SDS011;2300;51.874;8.430;2024-02-04T01:25:58;45.57;;;26.40;;
4575;SDS011;2300;51.874;8.430;2024-02-04T01:28:27;52.73;;;28.80;;
4575;SDS011;2300;51.874;8.430;2024-02-04T01:30:53;47.90;;;28.37;;
4575;SDS011;2300;51.874;8.430;2024-02-04T01:33:22;50.70;;;29.57;;
4575;SDS011;2300;51.874;8.430;2024-02-04T01:35:48;54.47;;;31.23;;
4575;SDS011;2300;51.874;8.430;2024-02-04T01:38:15;59.77;;;33.87;;
4575;SDS011;2300;51.874;8.430;2024-02-04T01:40:42;60.87;;;37.23;;
4575;SDS011;2300;51.874;8.430;2024-02-04T01:43:11;66.30;;;38.73;;
4575;SDS011;2300;51.874;8.430;2024-02-04T01:45:40;63.23;;;37.47;;
4575;SDS011;2300;51.874;8.430;2024-02-04T01:48:08;66.07;;;40.60;;
4575;SDS011;2300;51.874;8.430;2024-02-04T01:50:35;64.80;;;39.67;;
4575;SDS011;2300;51.874;8.430;2024-02-04T01:53:02;65.50;;;39.83;;
4575;SDS011;2300;51.874;8.430;2024-02-04T01:55:30;69.07;;;39.73;;
4575;SDS011;2300;51.874;8.430;2024-02-04T01:57:57;66.10;;;38.93;;
4575;SDS011;2300;51.874;8.430;2024-02-04T02:00:24;65.60;;;38.90;;
4575;SDS011;2300;51.874;8.430;2024-02-04T02:02:53;66.17;;;39.70;;
4575;SDS011;2300;51.874;8.430;2024-02-04T02:05:23;66.37;;;38.97;;
4575;SDS011;2300;51.874;8.430;2024-02-04T02:07:52;67.17;;;40.27;;
4575;SDS011;2300;51.874;8.430;2024-02-04T02:10:20;61.77;;;35.83;;
4575;SDS011;2300;51.874;8.430;2024-02-04T02:12:50;61.27;;;36.43;;
4575;SDS011;2300;51.874;8.430;2024-02-04T02:15:21;62.83;;;37.70;;
4575;SDS011;2300;51.874;8.430;2024-02-04T02:17:51;63.23;;;36.77;;
4575;SDS011;2300;51.874;8.430;2024-02-04T02:20:32;62.90;;;37.17;;
4575;SDS011;2300;51.874;8.430;2024-02-04T02:23:10;56.77;;;34.80;;
4575;SDS011;2300;51.874;8.430;2024-02-04T02:25:42;51.27;;;32.00;;
4575;SDS011;2300;51.874;8.430;2024-02-04T02:28:09;54.23;;;33.63;;
4575;SDS011;2300;51.874;8.430;2024-02-04T02:30:36;51.03;;;31.63;;
4575;SDS011;2300;51.874;8.430;2024-02-04T02:33:04;46.53;;;30.00;;
4575;SDS011;2300;51.874;8.430;2024-02-04T02:35:31;44.87;;;29.33;;
4575;SDS011;2300;51.874;8.430;2024-02-04T02:38:02;45.20;;;28.90;;
4575;SDS011;2300;51.874;8.430;2024-02-04T02:40:34;45.20;;;28.40;;
4575;SDS011;2300;51.874;8.430;2024-02-04T02:43:09;38.67;;;25.80;;
4575;SDS011;2300;51.874;8.430;2024-02-04T02:45:37;37.80;;;25.20;;
4575;SDS011;2300;51.874;8.430;2024-02-04T02:48:05;37.40;;;24.13;;
4575;SDS011;2300;51.874;8.430;2024-02-04T02:50:34;38.57;;;25.40;;
4575;SDS011;2300;51.874;8.430;2024-02-04T02:53:04;36.37;;;24.00;;
4575;SDS011;2300;51.874;8.430;2024-02-04T02:55:31;36.73;;;24.10;;
4575;SDS011;2300;51.874;8.430;2024-02-04T02:57:57;35.77;;;23.13;;
4575;SDS011;2300;51.874;8.430;2024-02-04T03:00:28;35.87;;;23.00;;
4575;SDS011;2300;51.874;8.430;2024-02-04T03:02:56;32.57;;;21.83;;
4575;SDS011;2300;51.874;8.430;2024-02-04T03:05:23;29.87;;;19.90;;
4575;SDS011;2300;51.874;8.430;2024-02-04T03:07:50;31.67;;;20.70;;
4575;SDS011;2300;51.874;8.430;2024-02-04T03:10:16;27.43;;;17.10;;
4575;SDS011;2300;51.874;8.430;2024-02-04T03:12:43;25.63;;;15.63;;
4575;SDS011;2300;51.874;8.430;2024-02-04T03:15:10;21.80;;;14.50;;
4575;SDS011;2300;51.874;8.430;2024-02-04T03:17:38;21.43;;;14.77;;
4575;SDS011;2300;51.874;8.430;2024-02-04T03:20:05;20.90;;;13.53;;
4575;SDS011;2300;51.874;8.430;2024-02-04T03:22:32;18.87;;;12.43;;
4575;SDS011;2300;51.874;8.430;2024-02-04T03:24:59;17.83;;;11.33;;
4575;SDS011;2300;51.874;8.430;2024-02-04T03:27:27;18.40;;;11.70;;
4575;SDS011;2300;51.874;8.430;2024-02-04T03:29:53;19.33;;;10.97;;
4575;SDS011;2300;51.874;8.430;2024-02-04T03:32:20;18.10;;;11.50;;
4575;SDS011;2300;51.874;8.430;2024-02-04T03:34:51;18.67;;;10.23;;
4575;SDS011;2300;51.874;8.430;2024-02-04T03:37:18;16.60;;;10.70;;
4575;SDS011;2300;51.874;8.430;2024-02-04T03:39:44;18.13;;;10.87;;
4575;SDS011;2300;51.874;8.430;2024-02-04T03:42:11;17.37;;;10.07;;
4575;SDS011;2300;51.874;8.430;2024-02-04T03:44:38;18.20;;;11.10;;
4575;SDS011;2300;51.874;8.430;2024-02-04T03:47:05;19.03;;;10.97;;
4575;SDS011;2300;51.874;8.430;2024-02-04T03:49:31;15.73;;;10.17;;
4575;SDS011;2300;51.874;8.430;2024-02-04T03:52:00;18.60;;;10.60;;
4575;SDS011;2300;51.874;8.430;2024-02-04T03:54:27;15.73;;;10.33;;
4575;SDS011;2300;51.874;8.430;2024-02-04T03:56:54;16.13;;;9.80;;
4575;SDS011;2300;51.874;8.430;2024-02-04T03:59:20;16.20;;;10.27;;
4575;SDS011;2300;51.874;8.430;2024-02-04T04:01:47;13.73;;;9.10;;
4575;SDS011;2300;51.874;8.430;2024-02-04T04:04:14;14.03;;;8.50;;
4575;SDS011;2300;51.874;8.430;2024-02-04T04:06:42;10.73;;;7.90;;
4575;SDS011;2300;51.874;8.430;2024-02-04T04:09:10;13.03;;;8.37;;
4575;SDS011;2300;51.874;8.430;2024-02-04T04:11:37;12.77;;;7.90;;
4575;SDS011;2300;51.874;8.430;2024-02-04T04:14:04;15.10;;;8.40;;
4575;SDS011;2300;51.874;8.430;2024-02-04T04:16:30;11.50;;;7.53;;
4575;SDS011;2300;51.874;8.430;2024-02-04T04:18:59;13.47;;;8.13;;
4575;SDS011;2300;51.874;8.430;2024-02-04T04:21:26;11.60;;;7.20;;
4575;SDS011;2300;51.874;8.430;2024-02-04T04:23:54;12.40;;;7.43;;
4575;SDS011;2300;51.874;8.430;2024-02-04T04:26:22;12.70;;;7.93;;
4575;SDS011;2300;51.874;8.430;2024-02-04T04:28:49;11.80;;;6.83;;
4575;SDS011;2300;51.874;8.430;2024-02-04T04:31:16;11.97;;;7.37;;
4575;SDS011;2300;51.874;8.430;2024-02-04T04:33:42;12.83;;;6.90;;
4575;SDS011;2300;51.874;8.430;2024-02-04T04:36:09;12.03;;;6.60;;
4575;SDS011;2300;51.874;8.430;2024-02-04T04:38:36;9.63;;;6.03;;
4575;SDS011;2300;51.874;8.430;2024-02-04T04:41:05;12.50;;;7.03;;
4575;SDS011;2300;51.874;8.430;2024-02-04T04:43:36;11.47;;;7.13;;
4575;SDS011;2300;51.874;8.430;2024-02-04T04:46:04;10.07;;;6.73;;
4575;SDS011;2300;51.874;8.430;2024-02-04T04:48:32;8.80;;;5.83;;
4575;SDS011;2300;51.874;8.430;2024-02-04T04:50:58;9.47;;;5.80;;
4575;SDS011;2300;51.874;8.430;2024-02-04T04:53:25;9.90;;;6.77;;
4575;SDS011;2300;51.874;8.430;2024-02-04T04:55:52;10.00;;;6.07;;
4575;SDS011;2300;51.874;8.430;2024-02-04T04:58:18;9.97;;;6.67;;
4575;SDS011;2300;51.874;8.430;2024-02-04T05:00:47;10.30;;;7.07;;
4575;SDS011;2300;51.874;8.430;2024-02-04T05:03:14;9.53;;;6.43;;
4575;SDS011;2300;51.874;8.430;2024-02-04T05:05:40;9.67;;;6.67;;
4575;SDS011;2300;51.874;8.430;2024-02-04T05:08:09;11.77;;;7.33;;
4575;SDS011;2300;51.874;8.430;2024-02-04T05:10:36;13.33;;;8.10;;
4575;SDS011;2300;51.874;8.430;2024-02-04T05:13:05;12.20;;;8.50;;
4575;SDS011;2300;51.874;8.430;2024-02-04T05:15:35;13.60;;;8.53;;
4575;SDS011;2300;51.874;8.430;2024-02-04T05:18:03;15.57;;;8.83;;
4575;SDS011;2300;51.874;8.430;2024-02-04T05:20:30;15.70;;;9.90;;
4575;SDS011;2300;51.874;8.430;2024-02-04T05:22:57;15.87;;;9.67;;
4575;SDS011;2300;51.874;8.430;2024-02-04T05:25:24;18.33;;;11.60;;
4575;SDS011;2300;51.874;8.430;2024-02-04T05:27:50;18.07;;;10.87;;
4575;SDS011;2300;51.874;8.430;2024-02-04T05:30:19;19.87;;;11.97;;
4575;SDS011;2300;51.874;8.430;2024-02-04T05:32:45;21.60;;;11.93;;
4575;SDS011;2300;51.874;8.430;2024-02-04T05:35:14;21.20;;;12.60;;
4575;SDS011;2300;51.874;8.430;2024-02-04T05:37:41;22.93;;;13.60;;
4575;SDS011;2300;51.874;8.430;2024-02-04T05:40:08;21.67;;;13.47;;
4575;SDS011;2300;51.874;8.430;2024-02-04T05:42:37;24.77;;;14.43;;
4575;SDS011;2300;51.874;8.430;2024-02-04T05:45:04;23.50;;;14.10;;
4575;SDS011;2300;51.874;8.430;2024-02-04T05:47:31;25.27;;;15.33;;
4575;SDS011;2300;51.874;8.430;2024-02-04T05:49:58;22.07;;;14.00;;
4575;SDS011;2300;51.874;8.430;2024-02-04T05:52:26;26.97;;;14.93;;
4575;SDS011;2300;51.874;8.430;2024-02-04T05:54:54;24.67;;;15.60;;
4575;SDS011;2300;51.874;8.430;2024-02-04T05:57:21;25.27;;;13.93;;
4575;SDS011;2300;51.874;8.430;2024-02-04T05:59:49;24.70;;;15.33;;
4575;SDS011;2300;51.874;8.430;2024-02-04T06:02:17;25.40;;;14.40;;
4575;SDS011;2300;51.874;8.430;2024-02-04T06:04:44;23.47;;;14.43;;
4575;SDS011;2300;51.874;8.430;2024-02-04T06:07:13;25.83;;;14.30;;
4575;SDS011;2300;51.874;8.430;2024-02-04T06:09:41;21.23;;;12.70;;
4575;SDS011;2300;51.874;8.430;2024-02-04T06:12:09;21.53;;;12.57;;
4575;SDS011;2300;51.874;8.430;2024-02-04T06:14:36;22.47;;;12.87;;
4575;SDS011;2300;51.874;8.430;2024-02-04T06:17:04;23.93;;;12.87;;
4575;SDS011;2300;51.874;8.430;2024-02-04T06:19:33;19.17;;;12.43;;
4575;SDS011;2300;51.874;8.430;2024-02-04T06:22:00;20.13;;;11.23;;
4575;SDS011;2300;51.874;8.430;2024-02-04T06:24:26;20.47;;;12.50;;
4575;SDS011;2300;51.874;8.430;2024-02-04T06:26:55;22.40;;;11.87;;
4575;SDS011;2300;51.874;8.430;2024-02-04T06:29:22;22.30;;;12.80;;
4575;SDS011;2300;51.874;8.430;2024-02-04T06:31:48;19.90;;;12.63;;
4575;SDS011;2300;51.874;8.430;2024-02-04T06:34:15;21.03;;;13.43;;
4575;SDS011;2300;51.874;8.430;2024-02-04T06:36:43;21.53;;;13.43;;
4575;SDS011;2300;51.874;8.430;2024-02-04T06:39:10;21.00;;;13.37;;
4575;SDS011;2300;51.874;8.430;2024-02-04T06:41:37;25.73;;;15.27;;
4575;SDS011;2300;51.874;8.430;2024-02-04T06:44:06;25.07;;;16.07;;
4575;SDS011;2300;51.874;8.430;2024-02-04T06:46:32;27.83;;;16.73;;
4575;SDS011;2300;51.874;8.430;2024-02-04T06:49:02;33.00;;;19.03;;
4575;SDS011;2300;51.874;8.430;2024-02-04T06:51:28;29.37;;;18.43;;
4575;SDS011;2300;51.874;8.430;2024-02-04T06:53:55;32.00;;;18.80;;
4575;SDS011;2300;51.874;8.430;2024-02-04T06:56:22;30.50;;;19.20;;
4575;SDS011;2300;51.874;8.430;2024-02-04T06:58:49;35.10;;;20.17;;
4575;SDS011;2300;51.874;8.430;2024-02-04T07:01:17;38.53;;;21.30;;
4575;SDS011;2300;51.874;8.430;2024-02-04T07:03:44;29.93;;;18.87;;
4575;SDS011;2300;51.874;8.430;2024-02-04T07:06:10;37.07;;;21.17;;
4575;SDS011;2300;51.874;8.430;2024-02-04T07:08:37;34.43;;;19.93;;
4575;SDS011;2300;51.874;8.430;2024-02-04T07:11:04;35.40;;;20.47;;
4575;SDS011;2300;51.874;8.430;2024-02-04T07:13:39;35.93;;;19.93;;
4575;SDS011;2300;51.874;8.430;2024-02-04T07:16:06;38.63;;;21.07;;
4575;SDS011;2300;51.874;8.430;2024-02-04T07:18:40;35.50;;;21.00;;
4575;SDS011;2300;51.874;8.430;2024-02-04T07:21:06;35.90;;;21.33;;
4575;SDS011;2300;51.874;8.430;2024-02-04T07:23:36;43.63;;;22.33;;
4575;SDS011;2300;51.874;8.430;2024-02-04T07:26:03;39.93;;;21.23;;
4575;SDS011;2300;51.874;8.430;2024-02-04T07:28:30;33.47;;;20.33;;
4575;SDS011;2300;51.874;8.430;2024-02-04T07:30:57;34.47;;;20.20;;
4575;SDS011;2300;51.874;8.430;2024-02-04T07:33:24;35.93;;;22.00;;
4575;SDS011;2300;51.874;8.430;2024-02-04T07:35:52;37.63;;;21.33;;
4575;SDS011;2300;51.874;8.430;2024-02-04T07:38:21;38.57;;;20.70;;
4575;SDS011;2300;51.874;8.430;2024-02-04T07:40:48;32.17;;;20.60;;
4575;SDS011;2300;51.874;8.430;2024-02-04T07:43:15;34.47;;;20.60;;
4575;SDS011;2300;51.874;8.430;2024-02-04T07:45:42;40.93;;;20.57;;
4575;SDS011;2300;51.874;8.430;2024-02-04T07:48:09;38.17;;;20.73;;
4575;SDS011;2300;51.874;8.430;2024-02-04T07:50:35;36.83;;;21.13;;
4575;SDS011;2300;51.874;8.430;2024-02-04T07:53:06;38.73;;;21.07;;
4575;SDS011;2300;51.874;8.430;2024-02-04T07:55:33;37.67;;;20.17;;
4575;SDS011;2300;51.874;8.430;2024-02-04T07:58:01;38.90;;;19.50;;
4575;SDS011;2300;51.874;8.430;2024-02-04T08:00:28;34.73;;;19.33;;
4575;SDS011;2300;51.874;8.430;2024-02-04T08:02:55;35.80;;;18.93;;
4575;SDS011;2300;51.874;8.430;2024-02-04T08:05:23;32.83;;;20.00;;
4575;SDS011;2300;51.874;8.430;2024-02-04T08:07:50;34.20;;;19.83;;
4575;SDS011;2300;51.874;8.430;2024-02-04T08:10:21;35.57;;;17.83;;
4575;SDS011;2300;51.874;8.430;2024-02-04T08:12:49;25.13;;;14.53;;
4575;SDS011;2300;51.874;8.430;2024-02-04T08:15:17;18.43;;;10.57;;
4575;SDS011;2300;51.874;8.430;2024-02-04T08:17:44;18.73;;;9.53;;
4575;SDS011;2300;51.874;8.430;2024-02-04T08:20:11;17.37;;;8.07;;
4575;SDS011;2300;51.874;8.430;2024-02-04T08:22:38;15.00;;;8.17;;
4575;SDS011;2300;51.874;8.430;2024-02-04T08:25:05;15.10;;;7.67;;
4575;SDS011;2300;51.874;8.430;2024-02-04T08:27:37;16.37;;;7.50;;
4575;SDS011;2300;51.874;8.430;2024-02-04T08:30:04;14.53;;;5.93;;
4575;SDS011;2300;51.874;8.430;2024-02-04T08:32:44;14.80;;;6.20;;
4575;SDS011;2300;51.874;8.430;2024-02-04T08:35:11;13.03;;;5.50;;
4575;SDS011;2300;51.874;8.430;2024-02-04T08:37:40;13.43;;;6.20;;
4575;SDS011;2300;51.874;8.430;2024-02-04T08:40:07;11.73;;;5.30;;
4575;SDS011;2300;51.874;8.430;2024-02-04T08:42:37;10.43;;;4.90;;
4575;SDS011;2300;51.874;8.430;2024-02-04T08:45:04;15.60;;;5.20;;
4575;SDS011;2300;51.874;8.430;2024-02-04T08:47:32;9.90;;;5.10;;
4575;SDS011;2300;51.874;8.430;2024-02-04T08:49:58;12.20;;;4.37;;
4575;SDS011;2300;51.874;8.430;2024-02-04T08:52:25;12.50;;;4.20;;
4575;SDS011;2300;51.874;8.430;2024-02-04T08:54:54;10.97;;;4.10;;
4575;SDS011;2300;51.874;8.430;2024-02-04T08:57:21;11.50;;;3.37;;
4575;SDS011;2300;51.874;8.430;2024-02-04T08:59:52;9.03;;;3.30;;
4575;SDS011;2300;51.874;8.430;2024-02-04T09:02:18;9.60;;;3.47;;
4575;SDS011;2300;51.874;8.430;2024-02-04T09:04:46;12.87;;;3.67;;
4575;SDS011;2300;51.874;8.430;2024-02-04T09:07:12;9.40;;;3.60;;
4575;SDS011;2300;51.874;8.430;2024-02-04T09:09:42;10.70;;;3.83;;
4575;SDS011;2300;51.874;8.430;2024-02-04T09:12:10;10.53;;;3.57;;
4575;SDS011;2300;51.874;8.430;2024-02-04T09:14:36;11.67;;;3.87;;
4575;SDS011;2300;51.874;8.430;2024-02-04T09:17:05;11.80;;;4.30;;
4575;SDS011;2300;51.874;8.430;2024-02-04T09:19:31;8.70;;;3.97;;
4575;SDS011;2300;51.874;8.430;2024-02-04T09:21:58;9.87;;;4.73;;
4575;SDS011;2300;51.874;8.430;2024-02-04T09:24:26;9.83;;;4.43;;
4575;SDS011;2300;51.874;8.430;2024-02-04T09:26:55;12.70;;;5.43;;
4575;SDS011;2300;51.874;8.430;2024-02-04T09:29:22;11.43;;;5.40;;
4575;SDS011;2300;51.874;8.430;2024-02-04T09:31:49;10.63;;;5.83;;
4575;SDS011;2300;51.874;8.430;2024-02-04T09:34:18;14.30;;;5.90;;
4575;SDS011;2300;51.874;8.430;2024-02-04T09:36:45;11.97;;;6.30;;
4575;SDS011;2300;51.874;8.430;2024-02-04T09:39:11;14.70;;;6.20;;
4575;SDS011;2300;51.874;8.430;2024-02-04T09:41:39;14.50;;;6.80;;
4575;SDS011;2300;51.874;8.430;2024-02-04T09:44:05;10.00;;;6.43;;
4575;SDS011;2300;51.874;8.430;2024-02-04T09:46:35;13.33;;;6.50;;
4575;SDS011;2300;51.874;8.430;2024-02-04T09:49:02;15.20;;;6.53;;
4575;SDS011;2300;51.874;8.430;2024-02-04T09:51:31;10.70;;;5.67;;
4575;SDS011;2300;51.874;8.430;2024-02-04T09:54:01;17.17;;;6.30;;
4575;SDS011;2300;51.874;8.430;2024-02-04T09:56:31;11.37;;;6.13;;
4575;SDS011;2300;51.874;8.430;2024-02-04T09:59:01;11.77;;;6.20;;
4575;SDS011;2300;51.874;8.430;2024-02-04T10:01:28;12.53;;;5.70;;
4575;SDS011;2300;51.874;8.430;2024-02-04T10:04:00;10.37;;;5.23;;
4575;SDS011;2300;51.874;8.430;2024-02-04T10:06:27;9.33;;;5.23;;
4575;SDS011;2300;51.874;8.430;2024-02-04T10:08:56;9.30;;;5.90;;
4575;SDS011;2300;51.874;8.430;2024-02-04T10:11:23;12.20;;;5.47;;
4575;SDS011;2300;51.874;8.430;2024-02-04T10:13:49;14.27;;;4.90;;
4575;SDS011;2300;51.874;8.430;2024-02-04T10:16:16;9.77;;;5.00;;
4575;SDS011;2300;51.874;8.430;2024-02-04T10:18:44;11.17;;;5.00;;
4575;SDS011;2300;51.874;8.430;2024-02-04T10:21:16;9.93;;;4.77;;
4575;SDS011;2300;51.874;8.430;2024-02-04T10:23:45;11.93;;;4.97;;
4575;SDS011;2300;51.874;8.430;2024-02-04T10:26:14;9.27;;;4.60;;
4575;SDS011;2300;51.874;8.430;2024-02-04T10:28:41;9.03;;;4.80;;
4575;SDS011;2300;51.874;8.430;2024-02-04T10:31:12;8.13;;;4.57;;
4575;SDS011;2300;51.874;8.430;2024-02-04T10:33:40;9.27;;;4.40;;
4575;SDS011;2300;51.874;8.430;2024-02-04T10:36:09;12.30;;;4.73;;
4575;SDS011;2300;51.874;8.430;2024-02-04T10:38:37;10.33;;;4.70;;
4575;SDS011;2300;51.874;8.430;2024-02-04T10:41:04;9.90;;;5.10;;
4575;SDS011;2300;51.874;8.430;2024-02-04T10:43:34;8.93;;;5.00;;
4575;SDS011;2300;51.874;8.430;2024-02-04T10:46:05;12.27;;;6.23;;
4575;SDS011;2300;51.874;8.430;2024-02-04T10:48:41;11.57;;;5.47;;
4575;SDS011;2300;51.874;8.430;2024-02-04T10:51:12;11.07;;;5.47;;
4575;SDS011;2300;51.874;8.430;2024-02-04T10:53:41;9.73;;;5.67;;
4575;SDS011;2300;51.874;8.430;2024-02-04T10:56:13;10.07;;;5.57;;
4575;SDS011;2300;51.874;8.430;2024-02-04T10:58:42;8.87;;;5.77;;
4575;SDS011;2300;51.874;8.430;2024-02-04T11:01:11;10.33;;;5.43;;
4575;SDS011;2300;51.874;8.430;2024-02-04T11:03:52;13.07;;;6.23;;
4575;SDS011;2300;51.874;8.430;2024-02-04T11:06:26;14.73;;;7.10;;
4575;SDS011;2300;51.874;8.430;2024-02-04T11:08:54;13.93;;;6.40;;
4575;SDS011;2300;51.874;8.430;2024-02-04T11:11:23;11.07;;;7.10;;
4575;SDS011;2300;51.874;8.430;2024-02-04T11:13:54;10.53;;;6.77;;
4575;SDS011;2300;51.874;8.430;2024-02-04T11:16:28;11.20;;;7.30;;
4575;SDS011;2300;51.874;8.430;2024-02-04T11:19:23;12.40;;;7.10;;
4575;SDS011;2300;51.874;8.430;2024-02-04T11:22:09;12.73;;;7.73;;
4575;SDS011;2300;51.874;8.430;2024-02-04T11:24:52;12.20;;;8.33;;
4575;SDS011;2300;51.874;8.430;2024-02-04T11:27:29;13.37;;;7.47;;
4575;SDS011;2300;51.874;8.430;2024-02-04T11:30:02;14.20;;;9.03;;
4575;SDS011;2300;51.874;8.430;2024-02-04T11:32:30;14.27;;;8.30;;
4575;SDS011;2300;51.874;8.430;2024-02-04T11:34:58;14.50;;;9.57;;
4575;SDS011;2300;51.874;8.430;2024-02-04T11:37:28;14.70;;;9.13;;
4575;SDS011;2300;51.874;8.430;2024-02-04T11:39:57;15.10;;;9.03;;
4575;SDS011;2300;51.874;8.430;2024-02-04T11:42:25;17.27;;;9.73;;
4575;SDS011;2300;51.874;8.430;2024-02-04T11:45:12;13.37;;;9.23;;
4575;SDS011;2300;51.874;8.430;2024-02-04T11:47:41;14.40;;;8.63;;
4575;SDS011;2300;51.874;8.430;2024-02-04T11:50:09;14.80;;;9.63;;
4575;SDS011;2300;51.874;8.430;2024-02-04T11:52:36;14.43;;;9.13;;
4575;SDS011;2300;51.874;8.430;2024-02-04T11:55:03;14.63;;;9.57;;
4575;SDS011;2300;51.874;8.430;2024-02-04T11:57:32;17.43;;;9.43;;
4575;SDS011;2300;51.874;8.430;2024-02-04T12:00:00;15.67;;;9.10;;
4575;SDS011;2300;51.874;8.430;2024-02-04T12:02:32;16.17;;;9.73;;
4575;SDS011;2300;51.874;8.430;2024-02-04T12:05:01;14.50;;;9.03;;
4575;SDS011;2300;51.874;8.430;2024-02-04T12:07:31;13.33;;;8.13;;
4575;SDS011;2300;51.874;8.430;2024-02-04T12:10:00;13.43;;;7.80;;
4575;SDS011;2300;51.874;8.430;2024-02-04T12:12:28;12.53;;;7.97;;
4575;SDS011;2300;51.874;8.430;2024-02-04T12:14:56;10.47;;;7.10;;
4575;SDS011;2300;51.874;8.430;2024-02-04T12:17:24;10.60;;;7.43;;
4575;SDS011;2300;51.874;8.430;2024-02-04T12:19:53;11.63;;;7.30;;
4575;SDS011;2300;51.874;8.430;2024-02-04T12:22:20;10.80;;;6.97;;
4575;SDS011;2300;51.874;8.430;2024-02-04T12:24:48;12.90;;;7.13;;
4575;SDS011;2300;51.874;8.430;2024-02-04T12:27:15;12.30;;;7.97;;
4575;SDS011;2300;51.874;8.430;2024-02-04T12:29:43;12.13;;;6.83;;
4575;SDS011;2300;51.874;8.430;2024-02-04T12:32:13;16.50;;;7.80;;
4575;SDS011;2300;51.874;8.430;2024-02-04T12:34:41;11.57;;;7.40;;
4575;SDS011;2300;51.874;8.430;2024-02-04T12:37:09;12.77;;;6.83;;
4575;SDS011;2300;51.874;8.430;2024-02-04T12:39:36;13.87;;;6.73;;
4575;SDS011;2300;51.874;8.430;2024-02-04T12:42:03;10.93;;;6.83;;
4575;SDS011;2300;51.874;8.430;2024-02-04T12:44:30;13.70;;;7.50;;
4575;SDS011;2300;51.874;8.430;2024-02-04T12:47:01;10.07;;;6.43;;
4575;SDS011;2300;51.874;8.430;2024-02-04T12:49:28;9.03;;;6.40;;
4575;SDS011;2300;51.874;8.430;2024-02-04T12:52:03;11.10;;;6.87;;
4575;SDS011;2300;51.874;8.430;2024-02-04T12:54:39;11.73;;;6.90;;
4575;SDS011;2300;51.874;8.430;2024-02-04T12:57:07;12.63;;;7.30;;
4575;SDS011;2300;51.874;8.430;2024-02-04T12:59:36;11.00;;;7.47;;
4575;SDS011;2300;51.874;8.430;2024-02-04T13:02:04;11.80;;;6.87;;
4575;SDS011;2300;51.874;8.430;2024-02-04T13:04:34;9.10;;;6.67;;
4575;SDS011;2300;51.874;8.430;2024-02-04T13:07:05;11.13;;;6.57;;
4575;SDS011;2300;51.874;8.430;2024-02-04T13:09:35;9.30;;;6.53;;
4575;SDS011;2300;51.874;8.430;2024-02-04T13:12:03;12.87;;;8.60;;
4575;SDS011;2300;51.874;8.430;2024-02-04T13:14:30;11.03;;;8.23;;
4575;SDS011;2300;51.874;8.430;2024-02-04T13:16:57;12.73;;;9.17;;
4575;SDS011;2300;51.874;8.430;2024-02-04T13:19:31;11.77;;;7.60;;
4575;SDS011;2300;51.874;8.430;2024-02-04T13:22:01;11.50;;;7.57;;
4575;SDS011;2300;51.874;8.430;2024-02-04T13:24:28;12.47;;;9.37;;
4575;SDS011;2300;51.874;8.430;2024-02-04T13:26:57;12.83;;;8.60;;
4575;SDS011;2300;51.874;8.430;2024-02-04T13:29:25;11.80;;;9.90;;
4575;SDS011;2300;51.874;8.430;2024-02-04T13:31:52;11.33;;;7.23;;
4575;SDS011;2300;51.874;8.430;2024-02-04T13:34:19;12.77;;;7.33;;
4575;SDS011;2300;51.874;8.430;2024-02-04T13:36:47;9.10;;;6.87;;
4575;SDS011;2300;51.874;8.430;2024-02-04T13:39:16;8.17;;;6.17;;
4575;SDS011;2300;51.874;8.430;2024-02-04T13:41:46;8.13;;;5.97;;
4575;SDS011;2300;51.874;8.430;2024-02-04T13:44:16;8.13;;;5.90;;
4575;SDS011;2300;51.874;8.430;2024-02-04T13:46:43;7.60;;;5.33;;
4575;SDS011;2300;51.874;8.430;2024-02-04T13:49:11;16.17;;;13.77;;
4575;SDS011;2300;51.874;8.430;2024-02-04T13:51:37;9.27;;;6.37;;
4575;SDS011;2300;51.874;8.430;2024-02-04T13:54:04;10.07;;;7.63;;
4575;SDS011;2300;51.874;8.430;2024-02-04T13:56:30;8.70;;;4.90;;
4575;SDS011;2300;51.874;8.430;2024-02-04T13:58:58;9.33;;;6.83;;
4575;SDS011;2300;51.874;8.430;2024-02-04T14:01:27;7.97;;;6.33;;
4575;SDS011;2300;51.874;8.430;2024-02-04T14:03:54;18.63;;;13.13;;
4575;SDS011;2300;51.874;8.430;2024-02-04T14:06:21;12.60;;;8.43;;
4575;SDS011;2300;51.874;8.430;2024-02-04T14:08:52;9.23;;;6.17;;
4575;SDS011;2300;51.874;8.430;2024-02-04T14:11:20;10.00;;;6.97;;
4575;SDS011;2300;51.874;8.430;2024-02-04T14:13:48;9.77;;;7.07;;
4575;SDS011;2300;51.874;8.430;2024-02-04T14:16:15;7.27;;;5.40;;
4575;SDS011;2300;51.874;8.430;2024-02-04T14:18:44;9.13;;;5.80;;
4575;SDS011;2300;51.874;8.430;2024-02-04T14:21:14;9.97;;;7.47;;
4575;SDS011;2300;51.874;8.430;2024-02-04T14:23:41;8.37;;;5.40;;
4575;SDS011;2300;51.874;8.430;2024-02-04T14:26:23;8.43;;;5.60;;
4575;SDS011;2300;51.874;8.430;2024-02-04T14:28:51;6.80;;;4.60;;
4575;SDS011;2300;51.874;8.430;2024-02-04T14:31:18;7.03;;;4.73;;
4575;SDS011;2300;51.874;8.430;2024-02-04T14:33:50;5.70;;;3.77;;
4575;SDS011;2300;51.874;8.430;2024-02-04T14:36:17;5.90;;;4.03;;
4575;SDS011;2300;51.874;8.430;2024-02-04T14:38:44;5.07;;;3.63;;
4575;SDS011;2300;51.874;8.430;2024-02-04T14:41:12;6.10;;;4.40;;
4575;SDS011;2300;51.874;8.430;2024-02-04T14:43:41;8.50;;;5.53;;
4575;SDS011;2300;51.874;8.430;2024-02-04T14:46:09;7.57;;;4.30;;
4575;SDS011;2300;51.874;8.430;2024-02-04T14:48:35;6.50;;;5.03;;
4575;SDS011;2300;51.874;8.430;2024-02-04T14:51:05;6.93;;;4.90;;
4575;SDS011;2300;51.874;8.430;2024-02-04T14:53:34;6.73;;;4.90;;
4575;SDS011;2300;51.874;8.430;2024-02-04T14:56:03;7.57;;;4.30;;
4575;SDS011;2300;51.874;8.430;2024-02-04T14:58:31;7.07;;;5.10;;
4575;SDS011;2300;51.874;8.430;2024-02-04T15:00:58;9.27;;;5.30;;
4575;SDS011;2300;51.874;8.430;2024-02-04T15:03:27;5.97;;;3.50;;
4575;SDS011;2300;51.874;8.430;2024-02-04T15:05:54;5.17;;;3.60;;